Time;durP1;ratioP1;P1;durP2;ratioP2;P2;SDS_P1;SDS_P2;PMS_P1;PMS_P2;Temp;Humidity;BMP_temperature;BMP_pressure;BME280_temperature;BME280_humidity;BME280_pressure;Samples;Min_cycle;Max_cycle;Signal;HPM_P1;HPM_P2
2022/04/06 11:04:25;;;;;;;10.53;3.43;;;;;;;19.05;32.17;94483.63;4979769;28;1300092;-83
2022/04/06 11:06:56;;;;;;;8.32;3.30;;;;;;;19.04;29.86;94463.34;5053195;28;20218;-83
2022/04/06 11:12:22;;;;;;;7.45;3.22;;;;;;;19.37;31.61;94481.34;5051354;28;20229;-83
2022/04/06 11:14:49;;;;;;;8.27;3.35;;;;;;;19.42;31.09;94485.88;5051476;28;20186;-83
2022/04/06 11:17:45;;;;;;;4.22;3.47;;;;;;;19.43;30.68;94476.81;5051096;28;20582;-82
2022/04/06 11:20:28;;;;;;;66.10;27.90;;;;;;;19.54;31.32;94479.19;5049962;28;20236;-82
2022/04/06 11:22:54;;;;;;;77.80;31.60;;;;;;;19.49;31.94;94441.03;5050842;28;20185;-82
2022/04/06 11:25:30;;;;;;;40.78;16.52;;;;;;;19.69;31.83;94454.25;5050949;28;20163;-82
2022/04/06 11:28:07;;;;;;;11.65;4.55;;;;;;;19.59;30.52;94424.94;5050627;28;20171;-83
2022/04/06 11:30:34;;;;;;;6.68;3.60;;;;;;;19.64;31.55;94416.88;5050696;28;20562;-83
2022/04/06 11:33:01;;;;;;;8.13;3.80;;;;;;;19.64;31.12;94421.44;5050749;28;20264;-82
2022/04/06 11:35:28;;;;;;;10.57;3.63;;;;;;;19.39;29.83;94403.66;5050776;28;20229;-83
2022/04/06 11:37:55;;;;;;;4.00;2.97;;;;;;;19.48;30.94;94407.38;5051306;28;20213;-83
2022/04/06 11:40:22;;;;;;;64.80;22.13;;;;;;;19.45;32.59;94398.03;5050803;28;20174;-83
2022/04/06 11:42:49;;;;;;;11.95;4.85;;;;;;;19.57;31.82;94390.50;5051416;28;20185;-83
2022/04/06 11:45:23;;;;;;;5.75;3.00;;;;;;;19.57;30.98;94395.84;5051551;28;20665;-82
2022/04/06 11:47:57;;;;;;;7.65;3.88;;;;;;;19.68;29.69;94425.94;5047018;28;20193;-78
2022/04/06 11:50:35;;;;;;;10.52;3.30;;;;;;;19.44;30.08;94428.47;5051190;28;20538;-81
2022/04/06 11:53:15;;;;;;;4.57;3.05;;;;;;;18.99;30.13;94384.16;5034646;28;21893;-81
2022/04/06 11:55:51;;;;;;;9.52;3.45;;;;;;;19.20;29.73;94422.97;5052086;28;20257;-82
2022/04/06 11:58:38;;;;;;;5.40;2.92;;;;;;;19.10;31.64;94369.69;5050958;28;20163;-81
2022/04/06 12:01:09;;;;;;;5.65;2.85;;;;;;;19.52;29.17;94414.56;5048404;28;20645;-80
2022/04/06 12:03:37;;;;;;;10.63;3.50;;;;;;;19.42;30.97;94409.25;5050976;28;20163;-80
2022/04/06 12:06:04;;;;;;;6.40;3.00;;;;;;;19.26;29.70;94369.59;5035021;28;20211;-80
2022/04/06 12:08:33;;;;;;;6.93;4.03;;;;;;;19.54;29.71;94411.63;5051986;28;20175;-80
2022/04/06 12:10:59;;;;;;;7.50;3.13;;;;;;;19.58;28.99;94410.00;5044621;28;20680;-80
2022/04/06 12:13:30;;;;;;;5.75;2.33;;;;;;;19.68;31.46;94403.78;5042501;28;20210;-79
2022/04/06 12:15:56;;;;;;;4.30;2.85;;;;;;;19.86;29.65;94401.25;5044814;28;20610;-80
2022/04/06 12:18:23;;;;;;;8.15;3.17;;;;;;;19.92;29.30;94394.75;5030956;28;20265;-80
2022/04/06 12:20:50;;;;;;;9.15;3.42;;;;;;;20.09;30.28;94398.91;5051647;28;20183;-80
2022/04/06 12:23:18;;;;;;;8.30;2.85;;;;;;;20.18;28.65;94389.19;5031135;28;20193;-82
2022/04/06 12:25:44;;;;;;;8.23;3.28;;;;;;;19.93;29.05;94355.50;5051282;28;20171;-82
2022/04/06 12:28:22;;;;;;;4.63;2.85;;;;;;;20.21;28.87;94391.31;5051562;28;20232;-83
2022/04/06 12:31:08;;;;;;;4.30;3.10;;;;;;;20.26;30.52;94386.72;5048361;28;20228;-82
2022/04/06 12:33:42;;;;;;;5.97;3.47;;;;;;;20.28;28.54;94383.75;5051105;28;20205;-82
2022/04/06 12:36:19;;;;;;;7.75;3.58;;;;;;;20.16;29.17;94364.63;5057557;28;20178;-82
2022/04/06 12:39:03;;;;;;;7.75;3.38;;;;;;;20.24;29.47;94361.31;5055916;28;20658;-82
2022/04/06 12:41:34;;;;;;;9.93;3.67;;;;;;;20.32;28.66;94379.44;5051294;28;20171;-83
2022/04/06 12:44:02;;;;;;;6.80;3.60;;;;;;;20.18;28.44;94355.25;5033343;28;20167;-83
2022/04/06 12:46:58;;;;;;;8.63;3.60;;;;;;;20.39;30.55;94371.91;5051199;28;20182;-83
2022/04/06 12:49:36;;;;;;;9.50;3.72;;;;;;;20.48;30.41;94356.84;5030949;28;20278;-83
2022/04/06 12:52:03;;;;;;;8.55;3.80;;;;;;;20.59;30.82;94357.50;5050413;28;20215;-82
2022/04/06 12:54:31;;;;;;;6.28;2.70;;;;;;;20.40;30.65;94306.66;5052788;28;20171;-83
2022/04/06 12:57:18;;;;;;;11.40;5.10;;;;;;;20.76;28.59;94352.47;5050598;28;20293;-84
2022/04/06 12:59:45;;;;;;;10.75;3.67;;;;;;;20.53;29.73;94347.97;5050021;28;20178;-83
2022/04/06 13:02:33;;;;;;;10.38;3.45;;;;;;;20.47;30.79;94349.09;5051513;28;20198;-82
2022/04/06 13:05:07;;;;;;;8.60;3.03;;;;;;;20.56;29.92;94344.72;5050882;28;20269;-82
2022/04/06 13:07:35;;;;;;;4.15;3.35;;;;;;;20.48;29.82;94314.06;5032204;28;20183;-82
2022/04/06 13:10:06;;;;;;;12.02;3.78;;;;;;;20.60;29.06;94325.13;5051460;28;20171;-83
2022/04/06 13:12:32;;;;;;;5.78;3.13;;;;;;;20.40;28.87;94279.13;5031887;28;20191;-84
2022/04/06 13:15:00;;;;;;;7.97;3.00;;;;;;;20.56;28.53;94293.91;5051704;28;20168;-84
2022/04/06 13:17:27;;;;;;;6.80;2.95;;;;;;;20.45;28.82;94271.03;5055401;28;20167;-83
2022/04/06 13:19:53;;;;;;;8.07;3.38;;;;;;;20.66;28.07;94293.78;5055537;28;20206;-84
2022/04/06 13:22:19;;;;;;;6.38;3.22;;;;;;;20.72;28.13;94292.63;5055522;28;20148;-83
2022/04/06 13:24:45;;;;;;;8.55;2.88;;;;;;;20.83;28.40;94307.47;5055997;28;20178;-83
2022/04/06 13:27:12;;;;;;;7.15;3.65;;;;;;;20.88;28.85;94301.25;5055527;28;20179;-83
2022/04/06 13:29:41;;;;;;;6.60;2.72;;;;;;;20.67;28.78;94250.66;5054654;28;20676;-83
2022/04/06 13:32:07;;;;;;;8.27;2.67;;;;;;;20.59;28.13;94239.81;5054562;28;20206;-83
2022/04/06 13:34:32;;;;;;;4.97;2.60;;;;;;;20.68;29.93;94243.44;5036749;28;20522;-83
2022/04/06 13:36:58;;;;;;;4.78;3.05;;;;;;;20.73;28.86;94245.25;5054552;28;20171;-83
2022/04/06 13:39:25;;;;;;;6.60;2.80;;;;;;;20.71;28.07;94229.50;5053433;28;20187;-83
2022/04/06 13:41:56;;;;;;;5.68;2.47;;;;;;;20.64;27.56;94231.75;5053361;28;20194;-83
2022/04/06 13:44:24;;;;;;;4.95;2.63;;;;;;;20.63;27.46;94230.16;5054382;28;20174;-83
2022/04/06 13:46:54;;;;;;;5.97;2.58;;;;;;;20.57;27.60;94216.06;5050193;28;20532;-83
2022/04/06 13:49:21;;;;;;;6.80;3.33;;;;;;;20.82;27.15;94279.13;5052787;28;20179;-83
2022/04/06 13:51:47;;;;;;;6.03;3.03;;;;;;;20.73;27.95;94282.72;5051919;28;20213;-83
2022/04/06 13:54:14;;;;;;;8.98;3.53;;;;;;;20.37;27.49;94271.66;5049575;28;20179;-83
2022/04/06 13:56:39;;;;;;;6.57;3.22;;;;;;;19.99;28.04;94226.09;5048758;28;20656;-83
2022/04/06 13:59:07;;;;;;;7.88;2.53;;;;;;;20.06;28.10;94231.13;5054788;28;20171;-84
2022/04/06 14:01:37;;;;;;;14.02;2.88;;;;;;;20.28;27.55;94266.13;5036264;28;20175;-81
2022/04/06 14:04:06;;;;;;;12.43;3.00;;;;;;;20.04;28.15;94235.94;5052954;28;20182;-80
2022/04/06 14:06:35;;;;;;;11.57;3.53;;;;;;;20.14;28.45;94241.19;5052084;28;20229;-78
2022/04/06 14:09:03;;;;;;;8.50;2.90;;;;;;;20.36;28.56;94265.53;5046175;28;20179;-79
2022/04/06 14:11:29;;;;;;;6.88;2.85;;;;;;;20.36;28.27;94262.06;5050557;28;20195;-80
2022/04/06 14:13:55;;;;;;;3.47;2.75;;;;;;;20.42;27.89;94256.34;5054154;28;20176;-79
2022/04/06 14:16:21;;;;;;;7.45;3.35;;;;;;;20.41;27.87;94254.75;5052865;28;20183;-79
2022/04/06 14:18:48;;;;;;;5.00;2.72;;;;;;;20.39;28.25;94256.94;5053966;28;20171;-79
2022/04/06 14:21:14;;;;;;;4.13;2.97;;;;;;;20.29;27.96;94254.34;5054039;28;20174;-79
2022/04/06 14:23:41;;;;;;;4.72;2.67;;;;;;;20.28;28.52;94247.41;5053855;28;20179;-78
2022/04/06 14:26:08;;;;;;;12.23;3.17;;;;;;;20.37;28.55;94258.31;5052869;28;20643;-79
2022/04/06 14:28:35;;;;;;;8.82;2.78;;;;;;;20.23;28.23;94226.09;5053216;28;20179;-80
2022/04/06 14:31:00;;;;;;;4.57;3.20;;;;;;;20.33;28.31;94250.00;5050859;28;20171;-80
2022/04/06 14:33:26;;;;;;;11.77;3.35;;;;;;;19.92;29.47;94183.69;5053887;28;20298;-81
2022/04/06 14:35:51;;;;;;;6.65;2.63;;;;;;;20.26;28.73;94245.03;5053733;28;21839;-81
2022/04/06 14:38:18;;;;;;;6.53;2.80;;;;;;;20.35;28.65;94247.88;5053424;28;20271;-81
2022/04/06 14:40:47;;;;;;;5.43;2.72;;;;;;;20.13;28.59;94192.28;5052556;28;20170;-81
2022/04/06 14:43:19;;;;;;;5.93;3.53;;;;;;;20.04;27.82;94169.94;5053336;28;20178;-82
2022/04/06 14:45:46;;;;;;;9.63;2.83;;;;;;;20.35;28.47;94242.53;5053623;28;20171;-82
2022/04/06 14:48:11;;;;;;;6.43;2.80;;;;;;;19.96;29.19;94174.03;5052134;28;20618;-80
2022/04/06 14:50:40;;;;;;;6.47;3.25;;;;;;;20.00;28.25;94186.81;5053039;28;20244;-80
2022/04/06 14:53:07;;;;;;;7.45;2.60;;;;;;;20.26;28.48;94230.84;5052810;28;20202;-80
2022/04/06 14:55:36;;;;;;;6.63;2.75;;;;;;;20.19;28.60;94209.03;5033959;28;20224;-80
2022/04/06 14:58:02;;;;;;;8.50;2.72;;;;;;;20.25;28.52;94213.22;5053240;28;20270;-80
2022/04/06 15:00:28;;;;;;;3.80;2.97;;;;;;;20.34;28.34;94223.03;5048762;28;20203;-81
2022/04/06 15:02:56;;;;;;;5.03;2.53;;;;;;;20.33;28.64;94225.94;5053451;28;20522;-80
2022/04/06 15:05:23;;;;;;;6.57;2.75;;;;;;;20.24;28.58;94223.13;5052035;28;20222;-80
2022/04/06 15:07:52;;;;;;;11.63;3.00;;;;;;;20.17;29.12;94224.56;5052639;28;20178;-80
2022/04/06 15:10:18;;;;;;;4.35;3.05;;;;;;;20.01;29.46;94199.09;5052876;28;20175;-80
2022/04/06 15:12:44;;;;;;;7.90;3.08;;;;;;;19.79;28.62;94171.03;5034629;28;20230;-80
2022/04/06 15:15:10;;;;;;;4.55;2.83;;;;;;;20.03;28.68;94207.63;5035073;28;20209;-80
2022/04/06 15:17:35;;;;;;;7.68;3.05;;;;;;;20.01;28.65;94207.09;5051323;28;20186;-80
2022/04/06 15:20:02;;;;;;;5.57;2.45;;;;;;;20.03;28.69;94221.00;5051221;28;20189;-79
2022/04/06 15:22:27;;;;;;;6.95;2.50;;;;;;;20.05;28.59;94208.16;5052646;28;20274;-79
2022/04/06 15:24:53;;;;;;;3.78;2.40;;;;;;;19.83;29.09;94182.72;5052975;28;20657;-79
2022/04/06 15:27:18;;;;;;;5.03;2.92;;;;;;;19.86;29.27;94195.53;5052230;28;20611;-79
2022/04/06 15:29:44;;;;;;;6.35;2.70;;;;;;;20.00;29.15;94206.31;5050417;28;20174;-80
2022/04/06 15:32:10;;;;;;;5.75;2.60;;;;;;;19.74;29.54;94171.06;5035454;28;20206;-80
2022/04/06 15:37:20;;;;;;;5.25;2.97;;;;;;;19.84;29.66;94180.84;5052411;28;20332;-80
2022/04/06 15:39:51;;;;;;;5.28;2.95;;;;;;;20.00;29.65;94211.66;5052064;28;20670;-81
2022/04/06 15:42:18;;;;;;;9.25;3.30;;;;;;;19.71;29.38;94169.00;5051333;28;20167;-81
2022/04/06 15:44:44;;;;;;;7.85;3.00;;;;;;;19.86;29.42;94197.41;5051965;28;20171;-81
2022/04/06 15:47:12;;;;;;;6.88;3.45;;;;;;;19.39;29.24;94139.38;5052204;28;20179;-81
2022/04/06 15:49:39;;;;;;;5.00;3.30;;;;;;;19.80;30.00;94212.69;5052167;28;20652;-81
2022/04/06 15:52:07;;;;;;;6.65;3.15;;;;;;;19.68;29.35;94177.56;5052173;28;20301;-81
2022/04/06 15:54:46;;;;;;;6.20;2.53;;;;;;;19.46;29.37;94142.53;5050602;28;20190;-81
2022/04/06 15:57:13;;;;;;;7.13;3.10;;;;;;;19.76;29.69;94189.50;5052215;28;20170;-80
2022/04/06 15:59:40;;;;;;;6.25;2.80;;;;;;;19.34;29.57;94131.44;5051444;28;20174;-81
2022/04/06 16:02:05;;;;;;;7.78;2.90;;;;;;;19.44;29.44;94155.38;5051627;28;20179;-82
2022/04/06 16:04:31;;;;;;;6.95;2.47;;;;;;;19.57;29.62;94182.22;5034152;28;20174;-81
2022/04/06 16:06:57;;;;;;;6.72;2.45;;;;;;;19.29;29.79;94126.13;5051806;28;20597;-83
2022/04/06 16:09:23;;;;;;;8.15;2.78;;;;;;;19.34;29.63;94142.91;5050766;28;20221;-83
2022/04/06 16:11:48;;;;;;;7.97;3.05;;;;;;;19.35;29.68;94147.19;5051870;28;20274;-83
2022/04/06 16:14:14;;;;;;;4.43;2.40;;;;;;;19.56;30.06;94182.50;5051965;28;20313;-83
2022/04/06 16:16:40;;;;;;;4.03;2.58;;;;;;;19.39;30.04;94144.72;5050053;28;20198;-82
2022/04/06 16:19:05;;;;;;;9.82;3.22;;;;;;;19.54;29.92;94168.66;5052384;28;20198;-82
2022/04/06 16:21:31;;;;;;;8.65;3.28;;;;;;;19.51;30.21;94179.88;5051819;28;20194;-82
2022/04/06 16:23:57;;;;;;;13.25;3.08;;;;;;;19.45;30.19;94173.78;5051957;28;20215;-82
2022/04/06 16:26:23;;;;;;;9.50;3.35;;;;;;;19.33;30.30;94157.34;5052446;28;20257;-82
2022/04/06 16:28:52;;;;;;;7.70;2.92;;;;;;;19.01;29.96;94106.44;5054089;28;20185;-82
2022/04/06 16:31:17;;;;;;;5.90;3.10;;;;;;;19.06;30.19;94125.03;5051988;28;20178;-81
2022/04/06 16:33:43;;;;;;;6.82;2.92;;;;;;;19.03;30.38;94137.06;5032059;28;20179;-80
2022/04/06 16:36:09;;;;;;;9.77;5.63;;;;;;;19.11;30.63;94160.47;5049589;28;20259;-80
2022/04/06 16:38:38;;;;;;;7.13;3.35;;;;;;;19.16;30.78;94172.97;5051231;28;20653;-79
2022/04/06 16:41:09;;;;;;;13.13;3.45;;;;;;;19.10;30.99;94158.09;5049589;28;20217;-81
2022/04/06 16:43:37;;;;;;;16.30;3.38;;;;;;;18.79;31.48;94117.53;5032473;28;20191;-82
2022/04/06 16:46:03;;;;;;;20.65;3.85;;;;;;;18.93;32.00;94176.38;5050169;28;20178;-80
2022/04/06 16:48:29;;;;;;;17.02;3.90;;;;;;;18.66;31.93;94156.31;5032901;28;20853;-80
2022/04/06 16:53:41;;;;;;;7.15;2.72;;;;;;;18.54;31.50;94152.38;5050950;28;20196;-81
2022/04/06 16:56:07;;;;;;;6.18;3.28;;;;;;;18.32;31.79;94129.59;5049297;28;20175;-80
2022/04/06 16:58:32;;;;;;;6.03;3.47;;;;;;;18.56;31.94;94160.91;5044136;28;20248;-81
2022/04/06 17:00:59;;;;;;;6.03;2.78;;;;;;;18.60;32.12;94177.94;5050363;28;20179;-83
2022/04/06 17:03:25;;;;;;;5.35;2.75;;;;;;;18.54;32.39;94179.03;5049809;28;20160;-81
2022/04/06 17:05:50;;;;;;;6.90;3.10;;;;;;;18.16;31.91;94116.66;5047279;28;20607;-81
2022/04/06 17:08:17;;;;;;;7.28;2.70;;;;;;;18.29;31.74;94135.47;5050125;28;20631;-81
2022/04/06 17:10:45;;;;;;;9.23;3.00;;;;;;;18.13;31.42;94112.66;5050475;28;20179;-82
2022/04/06 17:13:11;;;;;;;6.43;3.33;;;;;;;18.38;31.80;94171.13;5049022;28;20198;-80
2022/04/06 17:15:37;;;;;;;3.85;3.17;;;;;;;18.26;31.94;94173.31;5049432;28;20163;-81
2022/04/06 17:18:03;;;;;;;6.07;2.95;;;;;;;18.12;32.32;94177.66;5028531;28;20179;-81
2022/04/06 17:20:29;;;;;;;11.40;4.28;;;;;;;18.11;32.39;94173.41;5048682;28;20186;-81
2022/04/06 17:22:55;;;;;;;6.28;4.13;;;;;;;17.93;33.05;94166.03;5046979;28;20155;-80
2022/04/06 17:25:22;;;;;;;8.65;4.18;;;;;;;17.89;33.25;94179.13;5049145;28;20202;-81
2022/04/06 17:27:50;;;;;;;7.30;3.72;;;;;;;17.79;33.52;94186.34;5049376;28;20191;-81
2022/04/06 17:30:16;;;;;;;11.75;4.82;;;;;;;17.69;33.84;94187.97;5032198;28;20163;-81
2022/04/06 17:32:42;;;;;;;14.07;5.72;;;;;;;17.44;34.24;94156.06;5049720;28;20252;-81
2022/04/06 17:35:09;;;;;;;28.65;8.80;;;;;;;17.63;35.03;94190.91;5048577;28;20725;-80
2022/04/06 17:37:35;;;;;;;16.23;3.92;;;;;;;17.42;34.17;94178.69;5047434;28;20172;-82
2022/04/06 17:40:02;;;;;;;36.25;5.88;;;;;;;16.97;34.65;94133.28;5050015;28;20182;-82
2022/04/06 17:42:27;;;;;;;33.33;8.93;;;;;;;17.25;35.65;94187.75;5030540;28;20702;-82
2022/04/06 17:44:53;;;;;;;37.15;11.27;;;;;;;16.85;36.56;94137.28;5032033;28;20262;-83
2022/04/06 17:47:18;;;;;;;41.53;12.13;;;;;;;16.94;36.72;94179.03;5050559;28;20252;-82
2022/04/06 17:49:44;;;;;;;34.50;11.98;;;;;;;16.55;37.07;94136.19;5050565;28;20267;-81
2022/04/06 17:52:09;;;;;;;26.23;11.05;;;;;;;16.74;36.79;94184.34;5049972;28;20195;-81
2022/04/06 17:54:35;;;;;;;19.70;7.80;;;;;;;16.92;36.37;94217.56;5050428;28;20163;-82
2022/04/06 17:57:03;;;;;;;34.38;8.93;;;;;;;16.44;36.85;94153.16;5050359;28;20540;-82
2022/04/06 17:59:28;;;;;;;44.00;19.90;;;;;;;16.50;37.17;94167.28;5050187;28;20276;-82
2022/04/06 18:01:53;;;;;;;42.72;13.18;;;;;;;16.70;38.02;94201.84;5051667;28;20246;-83
2022/04/06 18:04:19;;;;;;;53.20;23.58;;;;;;;16.54;36.29;94171.78;5052988;28;20552;-82
2022/04/06 18:06:45;;;;;;;51.00;22.63;;;;;;;16.76;37.54;94208.00;5053083;28;20223;-81
2022/04/06 18:09:10;;;;;;;68.50;29.45;;;;;;;16.63;38.87;94225.25;5054133;28;20159;-83
2022/04/06 18:14:20;;;;;;;41.65;18.67;;;;;;;16.32;37.89;94183.72;5053885;28;20660;-82
2022/04/06 18:16:47;;;;;;;20.23;9.90;;;;;;;16.59;36.74;94218.84;5054041;28;20175;-82
2022/04/06 18:19:12;;;;;;;24.38;9.45;;;;;;;16.64;36.51;94218.06;5054104;28;20179;-80
2022/04/06 18:21:40;;;;;;;14.90;8.35;;;;;;;16.42;36.46;94203.13;5053765;28;20171;-81
2022/04/06 18:24:06;;;;;;;12.27;4.43;;;;;;;16.45;35.56;94194.63;5054385;28;20221;-81
2022/04/06 18:26:32;;;;;;;7.75;4.07;;;;;;;16.75;35.22;94231.13;5036374;28;20665;-80
2022/04/06 18:28:57;;;;;;;9.10;4.40;;;;;;;16.80;35.55;94219.69;5053745;28;20609;-80
2022/04/06 18:31:23;;;;;;;6.57;4.03;;;;;;;16.42;35.15;94173.13;5049877;28;20179;-80
2022/04/06 18:33:51;;;;;;;8.80;4.10;;;;;;;16.79;34.81;94236.69;5053422;28;20168;-80
2022/04/06 18:36:17;;;;;;;14.00;4.88;;;;;;;16.74;35.04;94218.88;5053020;28;20155;-81
2022/04/06 18:38:42;;;;;;;6.25;4.20;;;;;;;16.64;34.85;94210.91;5053041;28;20578;-80
2022/04/06 18:41:13;;;;;;;8.73;3.78;;;;;;;16.66;35.07;94224.72;5053447;28;20676;-79
2022/04/06 18:43:40;;;;;;;10.55;4.45;;;;;;;16.18;35.19;94186.84;5053444;28;20220;-81
2022/04/06 18:46:05;;;;;;;6.00;4.03;;;;;;;16.40;35.05;94231.81;5052973;28;20171;-80
2022/04/06 18:48:34;;;;;;;8.65;4.75;;;;;;;16.33;35.38;94223.31;5053109;28;20632;-82
2022/04/06 18:51:00;;;;;;;8.57;4.72;;;;;;;16.41;35.13;94232.63;5052960;28;20163;-81
2022/04/06 18:53:26;;;;;;;13.20;4.93;;;;;;;16.04;35.53;94180.47;5053269;28;20190;-81
2022/04/06 18:55:52;;;;;;;14.15;4.50;;;;;;;16.31;35.51;94235.25;5053222;28;20171;-80
2022/04/06 18:58:20;;;;;;;14.10;9.25;;;;;;;15.91;35.81;94188.13;5053133;28;20173;-80
2022/04/06 19:00:47;;;;;;;30.05;15.60;;;;;;;16.17;36.37;94235.72;5053004;28;20372;-80
2022/04/06 19:03:12;;;;;;;22.60;14.38;;;;;;;16.26;36.44;94245.88;5052773;28;20168;-81
2022/04/06 19:05:38;;;;;;;32.53;18.33;;;;;;;16.28;36.92;94243.72;5052986;28;20211;-81
2022/04/06 19:08:04;;;;;;;14.50;9.13;;;;;;;15.82;35.97;94179.84;5052769;28;20190;-81
2022/04/06 19:10:30;;;;;;;37.00;18.20;;;;;;;16.13;37.18;94255.09;5053091;28;20167;-81
2022/04/06 19:13:01;;;;;;;23.33;12.18;;;;;;;15.94;37.18;94236.16;5051771;28;20195;-81
2022/04/06 19:15:28;;;;;;;31.27;13.50;;;;;;;16.03;36.87;94258.50;5049664;28;20186;-80
2022/04/06 19:17:53;;;;;;;31.17;16.67;;;;;;;15.63;37.21;94207.91;5051558;28;20179;-82
2022/04/06 19:20:19;;;;;;;26.83;13.15;;;;;;;15.84;37.20;94252.84;5051403;28;20189;-81
2022/04/06 19:22:45;;;;;;;38.00;22.75;;;;;;;15.57;37.61;94236.22;5050967;28;20167;-86
2022/04/06 19:25:11;;;;;;;44.13;17.75;;;;;;;15.45;37.96;94222.34;5050477;28;20258;-86
2022/04/06 19:27:38;;;;;;;53.70;23.20;;;;;;;15.55;38.47;94272.84;5052186;28;20179;-85
2022/04/06 19:30:05;;;;;;;45.88;18.23;;;;;;;15.26;38.48;94231.78;5051064;28;20182;-83
2022/04/06 19:32:39;;;;;;;38.30;18.63;;;;;;;15.48;38.72;94257.09;5050263;28;20685;-85
2022/04/06 19:35:06;;;;;;;36.67;18.92;;;;;;;15.15;39.14;94214.19;5049619;28;20652;-85
2022/04/06 19:37:31;;;;;;;35.05;17.85;;;;;;;14.95;39.53;94231.56;5050945;28;20672;-85
2022/04/06 19:39:57;;;;;;;35.47;17.38;;;;;;;15.14;39.74;94274.38;5032096;28;20175;-84
2022/04/06 19:42:22;;;;;;;50.93;19.60;;;;;;;14.70;40.18;94220.75;5050877;28;20221;-85
2022/04/06 19:44:48;;;;;;;51.55;20.45;;;;;;;14.57;40.36;94214.00;5032827;28;20185;-86
2022/04/06 19:47:13;;;;;;;41.47;17.35;;;;;;;14.48;40.14;94191.66;5048447;28;20183;-85
2022/04/06 19:49:38;;;;;;;30.50;14.88;;;;;;;14.54;39.62;94203.09;5047144;28;20233;-84
2022/04/06 19:52:05;;;;;;;28.92;13.07;;;;;;;14.93;39.41;94256.69;5050863;28;20195;-84
2022/04/06 19:54:31;;;;;;;50.72;18.90;;;;;;;14.78;38.96;94224.78;5033391;28;20163;-84
2022/04/06 19:57:00;;;;;;;22.90;12.98;;;;;;;14.03;39.69;94111.78;5050575;28;20560;-85
2022/04/06 19:59:26;;;;;;;27.65;15.70;;;;;;;14.85;39.89;94251.88;5050945;28;20246;-84
2022/04/06 20:01:52;;;;;;;34.25;18.50;;;;;;;14.64;39.96;94225.19;5049975;28;20155;-86
2022/04/06 20:04:18;;;;;;;20.33;10.27;;;;;;;14.51;39.22;94209.72;5049121;28;20189;-84
2022/04/06 20:06:43;;;;;;;34.38;17.00;;;;;;;14.72;39.29;94231.88;5049730;28;20250;-81
2022/04/06 20:09:09;;;;;;;13.68;6.63;;;;;;;14.71;39.09;94220.47;5050052;28;20628;-84
2022/04/06 20:11:35;;;;;;;14.47;6.53;;;;;;;14.45;39.04;94180.75;5049995;28;20245;-82
2022/04/06 20:14:02;;;;;;;10.13;5.10;;;;;;;14.43;38.88;94175.72;5050430;28;20175;-86
2022/04/06 20:16:29;;;;;;;10.07;5.55;;;;;;;14.78;38.88;94230.09;5032167;28;20197;-84
2022/04/06 20:18:54;;;;;;;11.10;5.87;;;;;;;14.33;39.58;94171.09;5049972;28;20179;-83
2022/04/06 20:21:19;;;;;;;19.73;9.17;;;;;;;14.55;40.50;94225.88;5032827;28;20225;-83
2022/04/06 20:23:45;;;;;;;24.73;10.30;;;;;;;14.46;40.40;94206.19;5049323;28;20187;-82
2022/04/06 20:26:10;;;;;;;18.60;8.83;;;;;;;14.14;40.16;94166.41;5048751;28;20261;-82
2022/04/06 20:28:36;;;;;;;31.50;9.90;;;;;;;14.16;40.63;94166.97;5032564;28;20260;-81
2022/04/06 20:31:03;;;;;;;22.37;11.13;;;;;;;14.19;40.74;94177.03;5050385;28;20567;-82
2022/04/06 20:33:31;;;;;;;30.07;11.23;;;;;;;14.17;41.04;94174.66;5049524;28;20245;-82
2022/04/06 20:35:58;;;;;;;20.90;9.25;;;;;;;14.26;40.91;94197.00;5049024;28;20175;-83
2022/04/06 20:38:29;;;;;;;11.07;5.60;;;;;;;14.13;40.41;94167.44;5050308;28;20590;-82
2022/04/06 20:40:55;;;;;;;16.60;5.63;;;;;;;14.36;40.36;94205.00;5048491;28;20167;-82
2022/04/06 20:43:21;;;;;;;6.20;2.90;;;;;;;14.52;40.04;94200.72;5050132;28;20653;-82
2022/04/06 20:45:48;;;;;;;5.13;3.00;;;;;;;14.49;39.77;94169.44;5049286;28;20951;-84
2022/04/06 20:48:15;;;;;;;7.50;3.30;;;;;;;14.66;39.70;94199.25;5048187;28;20202;-84
2022/04/06 20:50:42;;;;;;;4.30;2.90;;;;;;;14.43;39.78;94165.16;5047916;28;20210;-84
2022/04/06 20:53:09;;;;;;;4.93;3.03;;;;;;;14.38;39.64;94165.03;5046434;28;22039;-86
2022/04/06 20:55:34;;;;;;;10.02;4.30;;;;;;;14.33;40.25;94159.72;5050409;28;20189;-85
2022/04/06 20:58:00;;;;;;;7.53;4.60;;;;;;;14.59;40.38;94197.84;5029125;28;20176;-82
2022/04/06 21:00:25;;;;;;;23.13;6.10;;;;;;;14.46;41.04;94201.69;5048483;28;20630;-84
2022/04/06 21:02:51;;;;;;;23.03;7.53;;;;;;;14.40;41.22;94199.25;5048246;28;20159;-83
2022/04/06 21:05:16;;;;;;;22.73;6.70;;;;;;;13.94;41.62;94124.66;5046720;28;20265;-81
2022/04/06 21:07:42;;;;;;;13.17;7.23;;;;;;;13.89;41.62;94128.06;5048130;28;20175;-82
2022/04/06 21:10:09;;;;;;;16.30;7.13;;;;;;;14.12;42.09;94181.72;5047019;28;20182;-81
2022/04/06 21:12:39;;;;;;;17.33;7.60;;;;;;;14.02;42.72;94179.78;5049768;28;20685;-82
2022/04/06 21:15:12;;;;;;;20.40;7.37;;;;;;;13.90;43.15;94177.28;5029615;28;20178;-82
2022/04/06 21:17:38;;;;;;;15.33;7.20;;;;;;;13.72;43.55;94168.84;5048774;28;20175;-82
2022/04/06 21:20:05;;;;;;;14.83;6.80;;;;;;;13.60;43.71;94166.34;5046951;28;20259;-82
2022/04/06 21:22:31;;;;;;;21.03;8.87;;;;;;;13.62;44.53;94174.81;5048376;28;20167;-82
2022/04/06 21:24:57;;;;;;;14.67;5.67;;;;;;;13.43;44.16;94144.44;5046843;28;20520;-81
2022/04/06 21:27:23;;;;;;;14.43;5.13;;;;;;;13.59;44.22;94160.25;5047527;28;20195;-81
2022/04/06 21:29:49;;;;;;;21.10;6.27;;;;;;;13.53;44.68;94166.53;5049469;28;20167;-82
2022/04/06 21:32:15;;;;;;;15.90;6.40;;;;;;;13.46;44.93;94165.09;5050521;28;20226;-82
2022/04/06 21:34:41;;;;;;;24.40;8.00;;;;;;;13.15;45.50;94127.69;5046578;28;20182;-82
2022/04/06 21:37:08;;;;;;;20.87;8.73;;;;;;;13.30;46.44;94173.88;5035394;28;20171;-85
2022/04/06 21:39:34;;;;;;;14.73;7.40;;;;;;;13.03;46.43;94148.13;5037151;28;20557;-83
2022/04/06 21:41:59;;;;;;;17.57;9.30;;;;;;;12.81;47.11;94123.50;5053737;28;20171;-83
2022/04/06 21:44:25;;;;;;;17.73;7.60;;;;;;;13.02;47.12;94164.22;5054461;28;20183;-83
2022/04/06 21:46:50;;;;;;;19.70;8.77;;;;;;;12.58;46.91;94113.13;5054602;28;20210;-83
2022/04/06 21:49:16;;;;;;;21.40;8.93;;;;;;;12.54;46.57;94112.00;5054796;28;20194;-83
2022/04/06 21:51:41;;;;;;;28.13;9.03;;;;;;;12.85;46.66;94164.25;5054858;28;20210;-83
2022/04/06 21:54:13;;;;;;;18.27;7.40;;;;;;;12.49;46.26;94112.72;5055014;28;20258;-83
2022/04/06 21:56:39;;;;;;;29.87;8.17;;;;;;;12.87;46.55;94159.53;5055900;28;20202;-83
2022/04/06 21:59:04;;;;;;;20.27;7.43;;;;;;;12.53;46.07;94086.66;5054723;28;20618;-83
2022/04/06 22:01:30;;;;;;;18.50;7.93;;;;;;;12.93;46.05;94136.59;5054229;28;20179;-83
2022/04/06 22:03:55;;;;;;;25.37;8.10;;;;;;;12.58;46.16;94073.50;5054730;28;20187;-83
2022/04/06 22:06:21;;;;;;;20.47;9.37;;;;;;;12.09;46.73;93994.97;5053922;28;20215;-83
2022/04/06 22:08:47;;;;;;;22.07;10.03;;;;;;;12.39;46.46;94055.28;5036765;28;20241;-83
2022/04/06 22:11:12;;;;;;;30.70;10.13;;;;;;;12.88;46.56;94121.50;5055038;28;20189;-83
2022/04/06 22:13:38;;;;;;;31.30;11.70;;;;;;;12.67;47.23;94080.78;5037117;28;20229;-83
2022/04/06 22:16:04;;;;;;;28.53;10.93;;;;;;;12.57;47.70;94095.69;5055005;28;20171;-83
2022/04/06 22:18:29;;;;;;;26.57;9.60;;;;;;;12.60;47.35;94097.84;5037114;28;20159;-83
2022/04/06 22:20:54;;;;;;;23.37;10.37;;;;;;;12.21;47.68;94066.09;5054787;28;20174;-83
2022/04/06 22:23:20;;;;;;;21.80;9.50;;;;;;;12.18;48.59;94079.78;5055160;28;20692;-83
2022/04/06 22:25:45;;;;;;;18.40;8.17;;;;;;;11.99;49.49;94046.75;5054913;28;20175;-83
2022/04/06 22:28:12;;;;;;;15.67;7.90;;;;;;;12.19;49.47;94070.03;5036323;28;20179;-83
2022/04/06 22:30:40;;;;;;;25.87;9.33;;;;;;;12.02;49.94;94036.50;5053943;28;20653;-83
2022/04/06 22:33:05;;;;;;;22.43;9.00;;;;;;;11.98;50.04;94031.97;5034669;28;20203;-82
2022/04/06 22:35:31;;;;;;;25.47;8.40;;;;;;;12.15;50.21;94040.69;5036355;28;20175;-83
2022/04/06 22:37:56;;;;;;;18.23;9.00;;;;;;;12.50;49.50;94079.19;5036725;28;20164;-83
2022/04/06 22:40:23;;;;;;;19.43;8.67;;;;;;;12.65;48.77;94095.25;5036371;28;20166;-83
2022/04/06 22:42:48;;;;;;;22.20;9.10;;;;;;;12.38;48.96;94040.50;5051502;28;20175;-83